sensor_id;sensor_type;location;lat;lon;timestamp;temperature;humidity
25360;DHT22;13311;51.386;0.016;2023-03-23T00:03:03;14.30;97.20
25360;DHT22;13311;51.386;0.016;2023-03-23T00:08:03;14.30;97.10
25360;DHT22;13311;51.386;0.016;2023-03-23T00:13:04;14.20;97.30
25360;DHT22;13311;51.386;0.016;2023-03-23T00:18:05;14.30;97.20
25360;DHT22;13311;51.386;0.016;2023-03-23T00:23:07;14.30;96.80
25360;DHT22;13311;51.386;0.016;2023-03-23T00:28:07;14.20;97.20
25360;DHT22;13311;51.386;0.016;2023-03-23T00:33:09;14.30;96.90
25360;DHT22;13311;51.386;0.016;2023-03-23T00:38:12;14.40;97.30
25360;DHT22;13311;51.386;0.016;2023-03-23T00:43:15;14.40;97.20
25360;DHT22;13311;51.386;0.016;2023-03-23T00:48:16;14.40;96.70
25360;DHT22;13311;51.386;0.016;2023-03-23T00:53:18;14.40;96.60
25360;DHT22;13311;51.386;0.016;2023-03-23T00:58:18;14.40;96.40
25360;DHT22;13311;51.386;0.016;2023-03-23T01:03:19;14.40;96.70
25360;DHT22;13311;51.386;0.016;2023-03-23T01:08:21;14.40;96.70
25360;DHT22;13311;51.386;0.016;2023-03-23T01:13:22;14.40;96.30
25360;DHT22;13311;51.386;0.016;2023-03-23T01:18:23;14.40;96.30
25360;DHT22;13311;51.386;0.016;2023-03-23T01:23:24;14.40;96.50
25360;DHT22;13311;51.386;0.016;2023-03-23T01:28:24;14.40;96.30
25360;DHT22;13311;51.386;0.016;2023-03-23T01:33:25;14.40;96.40
25360;DHT22;13311;51.386;0.016;2023-03-23T01:38:26;14.30;96.20
25360;DHT22;13311;51.386;0.016;2023-03-23T01:43:26;14.30;96.40
25360;DHT22;13311;51.386;0.016;2023-03-23T01:48:33;14.10;95.30
25360;DHT22;13311;51.386;0.016;2023-03-23T01:54:06;14.10;95.80
25360;DHT22;13311;51.386;0.016;2023-03-23T01:59:08;14.00;95.30
25360;DHT22;13311;51.386;0.016;2023-03-23T02:04:13;14.10;95.20
25360;DHT22;13311;51.386;0.016;2023-03-23T02:09:15;14.10;95.60
25360;DHT22;13311;51.386;0.016;2023-03-23T02:14:20;14.10;95.40
25360;DHT22;13311;51.386;0.016;2023-03-23T02:25:32;14.10;94.70
25360;DHT22;13311;51.386;0.016;2023-03-23T02:36:28;14.00;95.00
25360;DHT22;13311;51.386;0.016;2023-03-23T02:41:36;13.80;94.80
25360;DHT22;13311;51.386;0.016;2023-03-23T02:46:41;13.80;95.10
25360;DHT22;13311;51.386;0.016;2023-03-23T02:51:45;13.70;94.70
25360;DHT22;13311;51.386;0.016;2023-03-23T02:56:47;13.60;95.40
25360;DHT22;13311;51.386;0.016;2023-03-23T03:01:52;13.70;95.10
25360;DHT22;13311;51.386;0.016;2023-03-23T03:23:10;13.40;95.10
25360;DHT22;13311;51.386;0.016;2023-03-23T03:28:22;13.40;95.70
25360;DHT22;13311;51.386;0.016;2023-03-23T03:33:25;13.40;95.60
25360;DHT22;13311;51.386;0.016;2023-03-23T03:38:28;13.40;95.80
25360;DHT22;13311;51.386;0.016;2023-03-23T03:43:29;13.30;95.60
25360;DHT22;13311;51.386;0.016;2023-03-23T03:48:29;13.20;95.60
25360;DHT22;13311;51.386;0.016;2023-03-23T03:53:30;13.20;95.70
25360;DHT22;13311;51.386;0.016;2023-03-23T03:58:31;13.20;95.80
25360;DHT22;13311;51.386;0.016;2023-03-23T04:03:32;13.20;96.00
25360;DHT22;13311;51.386;0.016;2023-03-23T04:08:33;13.20;96.00
25360;DHT22;13311;51.386;0.016;2023-03-23T04:13:34;13.20;95.90
25360;DHT22;13311;51.386;0.016;2023-03-23T04:18:36;13.20;96.10
25360;DHT22;13311;51.386;0.016;2023-03-23T04:23:36;13.20;96.10
25360;DHT22;13311;51.386;0.016;2023-03-23T04:28:39;13.10;96.10
25360;DHT22;13311;51.386;0.016;2023-03-23T04:33:41;13.10;96.30
25360;DHT22;13311;51.386;0.016;2023-03-23T04:38:42;13.10;96.10
25360;DHT22;13311;51.386;0.016;2023-03-23T04:43:43;13.20;96.00
25360;DHT22;13311;51.386;0.016;2023-03-23T04:48:43;13.10;96.00
25360;DHT22;13311;51.386;0.016;2023-03-23T04:53:45;13.10;96.20
25360;DHT22;13311;51.386;0.016;2023-03-23T04:58:46;13.10;96.30
25360;DHT22;13311;51.386;0.016;2023-03-23T05:03:47;12.90;96.80
25360;DHT22;13311;51.386;0.016;2023-03-23T05:08:48;12.80;97.00
25360;DHT22;13311;51.386;0.016;2023-03-23T05:13:49;12.80;97.20
25360;DHT22;13311;51.386;0.016;2023-03-23T05:18:50;12.70;97.40
25360;DHT22;13311;51.386;0.016;2023-03-23T05:23:50;12.70;97.60
25360;DHT22;13311;51.386;0.016;2023-03-23T05:28:55;12.80;97.40
25360;DHT22;13311;51.386;0.016;2023-03-23T05:33:56;12.80;97.40
25360;DHT22;13311;51.386;0.016;2023-03-23T05:38:57;12.80;97.50
25360;DHT22;13311;51.386;0.016;2023-03-23T05:44:00;12.70;97.70
25360;DHT22;13311;51.386;0.016;2023-03-23T05:49:01;12.60;97.80
25360;DHT22;13311;51.386;0.016;2023-03-23T05:54:02;12.60;97.80
25360;DHT22;13311;51.386;0.016;2023-03-23T05:59:03;12.70;97.60
25360;DHT22;13311;51.386;0.016;2023-03-23T06:04:04;12.60;97.60
25360;DHT22;13311;51.386;0.016;2023-03-23T06:09:05;12.50;97.40
25360;DHT22;13311;51.386;0.016;2023-03-23T06:14:07;12.40;97.50
25360;DHT22;13311;51.386;0.016;2023-03-23T06:19:07;12.50;97.50
25360;DHT22;13311;51.386;0.016;2023-03-23T06:24:09;12.30;97.60
25360;DHT22;13311;51.386;0.016;2023-03-23T06:29:10;12.30;97.70
25360;DHT22;13311;51.386;0.016;2023-03-23T06:34:11;12.30;98.00
25360;DHT22;13311;51.386;0.016;2023-03-23T06:39:12;12.40;98.10
25360;DHT22;13311;51.386;0.016;2023-03-23T06:44:14;12.40;98.20
25360;DHT22;13311;51.386;0.016;2023-03-23T06:49:15;12.40;98.50
25360;DHT22;13311;51.386;0.016;2023-03-23T06:54:16;12.50;98.20
25360;DHT22;13311;51.386;0.016;2023-03-23T06:59:17;12.60;98.60
25360;DHT22;13311;51.386;0.016;2023-03-23T07:04:18;12.80;98.40
25360;DHT22;13311;51.386;0.016;2023-03-23T07:09:18;12.90;98.40
25360;DHT22;13311;51.386;0.016;2023-03-23T07:14:19;13.10;98.40
25360;DHT22;13311;51.386;0.016;2023-03-23T07:19:22;13.20;98.60
25360;DHT22;13311;51.386;0.016;2023-03-23T07:24:22;13.40;98.30
25360;DHT22;13311;51.386;0.016;2023-03-23T07:29:23;13.80;97.60
25360;DHT22;13311;51.386;0.016;2023-03-23T07:34:24;14.20;97.00
25360;DHT22;13311;51.386;0.016;2023-03-23T07:39:25;14.40;96.50
25360;DHT22;13311;51.386;0.016;2023-03-23T07:44:26;14.40;96.30
25360;DHT22;13311;51.386;0.016;2023-03-23T07:49:27;14.30;96.30
25360;DHT22;13311;51.386;0.016;2023-03-23T07:54:28;14.30;96.30
25360;DHT22;13311;51.386;0.016;2023-03-23T07:59:29;14.30;96.30
25360;DHT22;13311;51.386;0.016;2023-03-23T08:04:30;14.20;96.20
25360;DHT22;13311;51.386;0.016;2023-03-23T08:09:37;14.40;95.90
25360;DHT22;13311;51.386;0.016;2023-03-23T08:14:38;14.60;96.00
25360;DHT22;13311;51.386;0.016;2023-03-23T08:19:40;14.60;96.20
25360;DHT22;13311;51.386;0.016;2023-03-23T08:24:40;14.90;95.70
25360;DHT22;13311;51.386;0.016;2023-03-23T08:29:44;15.20;95.00
25360;DHT22;13311;51.386;0.016;2023-03-23T08:34:46;15.40;94.70
25360;DHT22;13311;51.386;0.016;2023-03-23T08:39:51;15.50;94.60
25360;DHT22;13311;51.386;0.016;2023-03-23T08:44:53;15.70;94.10
25360;DHT22;13311;51.386;0.016;2023-03-23T08:49:54;15.70;93.70
25360;DHT22;13311;51.386;0.016;2023-03-23T08:54:55;15.80;93.40
25360;DHT22;13311;51.386;0.016;2023-03-23T08:59:57;16.00;93.80
25360;DHT22;13311;51.386;0.016;2023-03-23T09:05:00;16.20;93.30
25360;DHT22;13311;51.386;0.016;2023-03-23T09:10:02;16.50;93.20
25360;DHT22;13311;51.386;0.016;2023-03-23T09:15:04;16.80;92.80
25360;DHT22;13311;51.386;0.016;2023-03-23T09:20:09;16.90;92.80
25360;DHT22;13311;51.386;0.016;2023-03-23T09:25:16;17.00;92.10
25360;DHT22;13311;51.386;0.016;2023-03-23T09:30:27;17.00;92.30
25360;DHT22;13311;51.386;0.016;2023-03-23T09:35:35;17.10;92.60
25360;DHT22;13311;51.386;0.016;2023-03-23T09:40:58;16.80;91.80
25360;DHT22;13311;51.386;0.016;2023-03-23T09:52:16;16.60;93.10
25360;DHT22;13311;51.386;0.016;2023-03-23T10:08:25;16.90;92.90
25360;DHT22;13311;51.386;0.016;2023-03-23T10:19:45;16.80;94.20
25360;DHT22;13311;51.386;0.016;2023-03-23T10:30:19;16.70;94.00
25360;DHT22;13311;51.386;0.016;2023-03-23T10:35:32;16.70;94.00
25360;DHT22;13311;51.386;0.016;2023-03-23T10:40:45;16.70;93.70
25360;DHT22;13311;51.386;0.016;2023-03-23T10:45:57;16.40;93.70
25360;DHT22;13311;51.386;0.016;2023-03-23T10:51:03;16.30;94.30
25360;DHT22;13311;51.386;0.016;2023-03-23T11:01:31;16.00;95.90
25360;DHT22;13311;51.386;0.016;2023-03-23T11:06:34;15.90;96.90
25360;DHT22;13311;51.386;0.016;2023-03-23T11:11:42;16.00;97.10
25360;DHT22;13311;51.386;0.016;2023-03-23T11:16:56;16.20;96.70
25360;DHT22;13311;51.386;0.016;2023-03-23T11:27:06;16.40;95.50
25360;DHT22;13311;51.386;0.016;2023-03-23T11:32:14;16.50;95.20
25360;DHT22;13311;51.386;0.016;2023-03-23T11:37:35;16.60;95.30
25360;DHT22;13311;51.386;0.016;2023-03-23T11:42:45;16.70;94.60
25360;DHT22;13311;51.386;0.016;2023-03-23T11:53:23;16.80;95.20
25360;DHT22;13311;51.386;0.016;2023-03-23T11:58:39;16.90;94.30
25360;DHT22;13311;51.386;0.016;2023-03-23T12:03:56;17.20;94.10
25360;DHT22;13311;51.386;0.016;2023-03-23T12:09:18;17.20;93.70
25360;DHT22;13311;51.386;0.016;2023-03-23T12:15:01;17.20;94.30
25360;DHT22;13311;51.386;0.016;2023-03-23T12:20:16;17.00;94.30
25360;DHT22;13311;51.386;0.016;2023-03-23T12:25:43;16.90;94.30
25360;DHT22;13311;51.386;0.016;2023-03-23T12:30:51;16.90;94.60
25360;DHT22;13311;51.386;0.016;2023-03-23T12:41:43;16.80;94.20
25360;DHT22;13311;51.386;0.016;2023-03-23T12:47:01;16.70;94.40
25360;DHT22;13311;51.386;0.016;2023-03-23T12:57:45;16.90;93.10
25360;DHT22;13311;51.386;0.016;2023-03-23T13:02:55;17.20;93.90
25360;DHT22;13311;51.386;0.016;2023-03-23T13:08:09;17.40;92.20
25360;DHT22;13311;51.386;0.016;2023-03-23T13:13:19;17.60;92.50
25360;DHT22;13311;51.386;0.016;2023-03-23T13:23:53;17.60;91.70
25360;DHT22;13311;51.386;0.016;2023-03-23T13:29:14;17.60;91.70
25360;DHT22;13311;51.386;0.016;2023-03-23T13:39:35;17.50;90.50
25360;DHT22;13311;51.386;0.016;2023-03-23T13:49:56;17.80;92.60
25360;DHT22;13311;51.386;0.016;2023-03-23T14:00:48;17.70;90.10
25360;DHT22;13311;51.386;0.016;2023-03-23T14:06:14;17.60;91.20
25360;DHT22;13311;51.386;0.016;2023-03-23T14:11:21;17.80;92.50
25360;DHT22;13311;51.386;0.016;2023-03-23T14:16:27;17.90;91.70
25360;DHT22;13311;51.386;0.016;2023-03-23T14:21:38;17.70;91.10
25360;DHT22;13311;51.386;0.016;2023-03-23T14:26:41;17.70;92.20
25360;DHT22;13311;51.386;0.016;2023-03-23T14:31:44;17.70;90.70
25360;DHT22;13311;51.386;0.016;2023-03-23T14:36:45;17.60;90.40
25360;DHT22;13311;51.386;0.016;2023-03-23T14:41:45;17.40;91.00
25360;DHT22;13311;51.386;0.016;2023-03-23T14:46:47;17.20;91.00
25360;DHT22;13311;51.386;0.016;2023-03-23T14:51:54;17.20;91.60
25360;DHT22;13311;51.386;0.016;2023-03-23T14:56:55;17.00;92.10
25360;DHT22;13311;51.386;0.016;2023-03-23T15:01:56;17.00;93.90
25360;DHT22;13311;51.386;0.016;2023-03-23T15:07:02;17.10;94.30
25360;DHT22;13311;51.386;0.016;2023-03-23T15:12:04;17.00;94.80
25360;DHT22;13311;51.386;0.016;2023-03-23T15:17:05;16.90;94.80
25360;DHT22;13311;51.386;0.016;2023-03-23T15:22:26;16.60;95.20
25360;DHT22;13311;51.386;0.016;2023-03-23T15:27:33;16.50;95.70
25360;DHT22;13311;51.386;0.016;2023-03-23T15:32:40;16.40;95.40
25360;DHT22;13311;51.386;0.016;2023-03-23T15:37:53;16.30;95.40
25360;DHT22;13311;51.386;0.016;2023-03-23T15:43:27;16.20;95.30
25360;DHT22;13311;51.386;0.016;2023-03-23T15:49:19;16.20;95.60
25360;DHT22;13311;51.386;0.016;2023-03-23T15:53:58;16.30;96.00
25360;DHT22;13311;51.386;0.016;2023-03-23T15:58:59;16.20;95.80
25360;DHT22;13311;51.386;0.016;2023-03-23T16:04:13;16.20;95.90
25360;DHT22;13311;51.386;0.016;2023-03-23T16:09:18;15.90;96.50
25360;DHT22;13311;51.386;0.016;2023-03-23T16:14:20;15.60;97.60
25360;DHT22;13311;51.386;0.016;2023-03-23T16:19:20;15.50;98.30
25360;DHT22;13311;51.386;0.016;2023-03-23T16:24:23;15.30;98.80
25360;DHT22;13311;51.386;0.016;2023-03-23T16:29:24;15.00;99.80
25360;DHT22;13311;51.386;0.016;2023-03-23T16:34:25;14.90;99.90
25360;DHT22;13311;51.386;0.016;2023-03-23T16:39:28;14.70;99.90
25360;DHT22;13311;51.386;0.016;2023-03-23T16:44:29;14.50;99.90
25360;DHT22;13311;51.386;0.016;2023-03-23T16:49:30;14.40;99.90
25360;DHT22;13311;51.386;0.016;2023-03-23T16:54:30;14.50;99.90
25360;DHT22;13311;51.386;0.016;2023-03-23T16:59:31;14.40;99.90
25360;DHT22;13311;51.386;0.016;2023-03-23T17:04:32;14.50;99.90
25360;DHT22;13311;51.386;0.016;2023-03-23T17:09:33;14.50;99.90
25360;DHT22;13311;51.386;0.016;2023-03-23T17:14:34;14.50;99.90
25360;DHT22;13311;51.386;0.016;2023-03-23T17:19:35;14.50;99.90
25360;DHT22;13311;51.386;0.016;2023-03-23T17:24:36;14.50;99.90
25360;DHT22;13311;51.386;0.016;2023-03-23T17:29:36;14.50;99.90
25360;DHT22;13311;51.386;0.016;2023-03-23T17:34:37;14.60;99.90
25360;DHT22;13311;51.386;0.016;2023-03-23T17:39:39;14.50;99.90
25360;DHT22;13311;51.386;0.016;2023-03-23T17:44:39;14.30;99.90
25360;DHT22;13311;51.386;0.016;2023-03-23T17:49:41;14.20;99.90
25360;DHT22;13311;51.386;0.016;2023-03-23T17:54:42;14.10;99.90
25360;DHT22;13311;51.386;0.016;2023-03-23T17:59:42;14.00;99.90
25360;DHT22;13311;51.386;0.016;2023-03-23T18:04:44;13.80;99.90
25360;DHT22;13311;51.386;0.016;2023-03-23T18:09:46;13.90;99.90
25360;DHT22;13311;51.386;0.016;2023-03-23T18:14:46;14.00;99.90
25360;DHT22;13311;51.386;0.016;2023-03-23T18:19:47;13.70;99.90
25360;DHT22;13311;51.386;0.016;2023-03-23T18:24:48;13.50;99.90
25360;DHT22;13311;51.386;0.016;2023-03-23T18:29:49;13.40;99.90
25360;DHT22;13311;51.386;0.016;2023-03-23T18:34:50;13.40;99.90
25360;DHT22;13311;51.386;0.016;2023-03-23T18:39:50;13.40;99.90
25360;DHT22;13311;51.386;0.016;2023-03-23T18:44:53;13.40;99.90
25360;DHT22;13311;51.386;0.016;2023-03-23T18:49:54;13.30;99.90
25360;DHT22;13311;51.386;0.016;2023-03-23T18:54:56;13.20;99.90
25360;DHT22;13311;51.386;0.016;2023-03-23T18:59:58;13.10;99.90
25360;DHT22;13311;51.386;0.016;2023-03-23T19:04:58;13.20;99.90
25360;DHT22;13311;51.386;0.016;2023-03-23T19:09:59;13.10;99.90
25360;DHT22;13311;51.386;0.016;2023-03-23T19:15:01;13.10;99.90
25360;DHT22;13311;51.386;0.016;2023-03-23T19:20:02;13.30;99.90
25360;DHT22;13311;51.386;0.016;2023-03-23T19:25:05;13.10;99.90
25360;DHT22;13311;51.386;0.016;2023-03-23T19:30:08;13.20;99.90
25360;DHT22;13311;51.386;0.016;2023-03-23T19:35:09;13.40;99.90
25360;DHT22;13311;51.386;0.016;2023-03-23T19:40:10;13.50;99.90
25360;DHT22;13311;51.386;0.016;2023-03-23T19:45:11;13.50;99.90
25360;DHT22;13311;51.386;0.016;2023-03-23T19:50:12;13.40;99.90
25360;DHT22;13311;51.386;0.016;2023-03-23T19:55:13;13.50;99.90
25360;DHT22;13311;51.386;0.016;2023-03-23T20:00:14;13.50;99.90
25360;DHT22;13311;51.386;0.016;2023-03-23T20:05:16;13.60;99.90
25360;DHT22;13311;51.386;0.016;2023-03-23T20:10:17;13.70;99.90
25360;DHT22;13311;51.386;0.016;2023-03-23T20:15:18;13.80;99.90
25360;DHT22;13311;51.386;0.016;2023-03-23T20:20:19;13.80;99.90
25360;DHT22;13311;51.386;0.016;2023-03-23T20:25:19;14.00;99.90
25360;DHT22;13311;51.386;0.016;2023-03-23T20:30:20;14.00;99.90
25360;DHT22;13311;51.386;0.016;2023-03-23T20:35:21;14.00;99.90
25360;DHT22;13311;51.386;0.016;2023-03-23T20:40:22;14.10;99.90
25360;DHT22;13311;51.386;0.016;2023-03-23T20:45:22;14.20;99.90
25360;DHT22;13311;51.386;0.016;2023-03-23T20:50:23;14.20;99.90
25360;DHT22;13311;51.386;0.016;2023-03-23T20:55:24;14.20;99.90
25360;DHT22;13311;51.386;0.016;2023-03-23T21:00:25;14.20;99.90
25360;DHT22;13311;51.386;0.016;2023-03-23T21:05:25;14.20;99.90
25360;DHT22;13311;51.386;0.016;2023-03-23T21:10:26;14.00;99.90
25360;DHT22;13311;51.386;0.016;2023-03-23T21:15:28;14.10;99.90
25360;DHT22;13311;51.386;0.016;2023-03-23T21:20:29;14.10;99.90
25360;DHT22;13311;51.386;0.016;2023-03-23T21:25:30;14.10;99.90
25360;DHT22;13311;51.386;0.016;2023-03-23T21:30:33;14.20;99.90
25360;DHT22;13311;51.386;0.016;2023-03-23T21:35:34;14.30;99.90
25360;DHT22;13311;51.386;0.016;2023-03-23T21:40:35;14.20;99.90
25360;DHT22;13311;51.386;0.016;2023-03-23T21:45:37;14.30;99.80
25360;DHT22;13311;51.386;0.016;2023-03-23T21:50:40;14.10;99.80
25360;DHT22;13311;51.386;0.016;2023-03-23T21:55:41;14.10;99.80
25360;DHT22;13311;51.386;0.016;2023-03-23T22:00:45;14.10;99.70
25360;DHT22;13311;51.386;0.016;2023-03-23T22:05:46;14.00;99.90
25360;DHT22;13311;51.386;0.016;2023-03-23T22:10:48;14.00;99.90
25360;DHT22;13311;51.386;0.016;2023-03-23T22:15:50;14.10;99.80
25360;DHT22;13311;51.386;0.016;2023-03-23T22:20:51;14.10;99.80
25360;DHT22;13311;51.386;0.016;2023-03-23T22:25:53;14.10;99.40
25360;DHT22;13311;51.386;0.016;2023-03-23T22:31:02;14.10;99.50
25360;DHT22;13311;51.386;0.016;2023-03-23T22:36:05;14.10;99.60
25360;DHT22;13311;51.386;0.016;2023-03-23T22:41:07;14.00;99.70
25360;DHT22;13311;51.386;0.016;2023-03-23T22:46:10;13.90;99.70
25360;DHT22;13311;51.386;0.016;2023-03-23T22:51:12;13.90;99.60
25360;DHT22;13311;51.386;0.016;2023-03-23T22:56:15;13.90;99.50
25360;DHT22;13311;51.386;0.016;2023-03-23T23:01:19;13.90;99.70
25360;DHT22;13311;51.386;0.016;2023-03-23T23:06:21;13.80;99.50
25360;DHT22;13311;51.386;0.016;2023-03-23T23:11:23;13.70;99.60
25360;DHT22;13311;51.386;0.016;2023-03-23T23:16:24;13.60;99.90
25360;DHT22;13311;51.386;0.016;2023-03-23T23:21:27;13.70;99.70
25360;DHT22;13311;51.386;0.016;2023-03-23T23:26:28;13.60;99.70
25360;DHT22;13311;51.386;0.016;2023-03-23T23:31:30;13.60;99.90
25360;DHT22;13311;51.386;0.016;2023-03-23T23:36:32;13.70;99.50
25360;DHT22;13311;51.386;0.016;2023-03-23T23:41:34;13.60;99.50
25360;DHT22;13311;51.386;0.016;2023-03-23T23:46:36;13.60;99.40
25360;DHT22;13311;51.386;0.016;2023-03-23T23:51:36;13.70;99.50
25360;DHT22;13311;51.386;0.016;2023-03-23T23:56:37;13.80;99.40
